createdAt,value
2022-10-07T00:01:15.370Z,100.00
2022-10-07T00:03:42.092Z,100.00
2022-10-07T00:06:18.041Z,100.00
2022-10-07T00:08:54.065Z,100.00
2022-10-07T00:11:29.809Z,100.00
2022-10-07T00:14:02.822Z,100.00
2022-10-07T00:16:38.621Z,100.00
2022-10-07T00:19:14.366Z,100.00
2022-10-07T00:21:41.549Z,100.00
2022-10-07T00:24:11.504Z,100.00
2022-10-07T00:26:38.477Z,100.00
2022-10-07T00:29:08.044Z,100.00
2022-10-07T00:31:37.449Z,100.00
2022-10-07T00:34:05.716Z,100.00
2022-10-07T00:36:37.422Z,100.00
2022-10-07T00:39:11.798Z,100.00
2022-10-07T00:41:48.215Z,100.00
2022-10-07T00:44:36.001Z,100.00
2022-10-07T00:47:30.707Z,100.00
2022-10-07T00:50:26.498Z,100.00
2022-10-07T00:53:00.264Z,100.00
2022-10-07T00:55:32.350Z,100.00
2022-10-07T00:58:09.366Z,100.00
2022-10-07T01:00:39.798Z,100.00
2022-10-07T01:03:09.659Z,100.00
2022-10-07T01:05:36.590Z,100.00
2022-10-07T01:08:03.839Z,100.00
2022-10-07T01:11:13.808Z,100.00
2022-10-07T01:14:12.742Z,100.00
2022-10-07T01:16:48.615Z,100.00
2022-10-07T01:19:45.953Z,100.00
2022-10-07T01:22:30.541Z,100.00
2022-10-07T01:25:25.217Z,100.00
2022-10-07T01:28:12.741Z,100.00
2022-10-07T01:30:50.194Z,100.00
2022-10-07T01:33:28.186Z,100.00
2022-10-07T01:36:08.092Z,100.00
2022-10-07T01:38:41.799Z,100.00
2022-10-07T01:41:17.830Z,100.00
2022-10-07T01:43:48.756Z,100.00
2022-10-07T01:46:26.574Z,100.00
2022-10-07T01:48:54.309Z,100.00
2022-10-07T01:51:30.925Z,100.00
2022-10-07T01:55:00.060Z,100.00
2022-10-07T01:58:00.511Z,100.00
2022-10-07T02:00:27.592Z,100.00
2022-10-07T02:03:25.087Z,100.00
2022-10-07T02:06:18.614Z,100.00
2022-10-07T02:08:54.781Z,100.00
2022-10-07T02:11:29.415Z,100.00
2022-10-07T02:14:13.581Z,100.00
2022-10-07T02:16:48.191Z,100.00
2022-10-07T02:19:31.225Z,100.00
2022-10-07T02:22:02.850Z,100.00
2022-10-07T02:24:35.644Z,100.00
2022-10-07T02:27:12.445Z,100.00
2022-10-07T02:29:47.809Z,100.00
2022-10-07T02:32:22.531Z,100.00
2022-10-07T02:35:01.355Z,100.00
2022-10-07T02:37:37.956Z,100.00
2022-10-07T02:40:11.222Z,100.00
2022-10-07T02:42:59.000Z,100.00
2022-10-07T02:45:46.071Z,100.00
2022-10-07T02:48:42.131Z,100.00
2022-10-07T02:51:21.249Z,100.00
2022-10-07T02:53:54.261Z,100.00
2022-10-07T02:56:27.039Z,100.00
2022-10-07T02:58:54.855Z,100.00
2022-10-07T03:01:34.248Z,100.00
2022-10-07T03:04:01.452Z,100.00
2022-10-07T03:06:31.350Z,100.00
2022-10-07T03:09:00.350Z,100.00
2022-10-07T03:11:27.152Z,100.00
2022-10-07T03:13:53.887Z,100.00
2022-10-07T03:16:20.913Z,100.00
2022-10-07T03:18:47.842Z,100.00
2022-10-07T03:21:14.677Z,100.00
2022-10-07T03:23:41.575Z,100.00
2022-10-07T03:26:08.525Z,100.00
2022-10-07T03:28:37.596Z,100.00
2022-10-07T03:31:12.116Z,100.00
2022-10-07T03:33:39.191Z,100.00
2022-10-07T03:36:10.853Z,100.00
2022-10-07T03:38:40.492Z,100.00
2022-10-07T03:41:07.491Z,100.00
2022-10-07T03:43:34.701Z,100.00
2022-10-07T03:46:02.593Z,100.00
2022-10-07T03:48:31.409Z,100.00
2022-10-07T03:50:59.256Z,100.00
2022-10-07T03:53:29.457Z,100.00
2022-10-07T03:55:57.263Z,100.00
2022-10-07T03:58:24.090Z,100.00
2022-10-07T04:00:50.863Z,100.00
2022-10-07T04:03:19.137Z,100.00
2022-10-07T04:06:00.403Z,100.00
2022-10-07T04:08:29.452Z,100.00
2022-10-07T04:10:57.357Z,100.00
2022-10-07T04:13:28.088Z,100.00
2022-10-07T04:15:56.278Z,100.00
2022-10-07T04:18:24.252Z,100.00
2022-10-07T04:20:51.520Z,100.00
2022-10-07T04:23:27.658Z,100.00
2022-10-07T04:25:55.429Z,100.00
2022-10-07T04:28:33.333Z,100.00
2022-10-07T04:31:07.470Z,100.00
2022-10-07T04:33:38.275Z,100.00
2022-10-07T04:36:10.473Z,100.00
2022-10-07T04:38:37.647Z,100.00
2022-10-07T04:41:08.188Z,100.00
2022-10-07T04:43:35.598Z,100.00
2022-10-07T04:46:14.584Z,100.00
2022-10-07T04:48:48.302Z,100.00
2022-10-07T04:51:18.012Z,100.00
2022-10-07T04:53:45.279Z,100.00
2022-10-07T04:56:12.838Z,100.00
2022-10-07T04:58:39.714Z,100.00
2022-10-07T05:01:10.211Z,100.00
2022-10-07T05:03:40.056Z,100.00
2022-10-07T05:06:08.382Z,100.00
2022-10-07T05:08:36.009Z,100.00
2022-10-07T05:11:05.659Z,100.00
2022-10-07T05:13:34.373Z,100.00
2022-10-07T05:16:03.906Z,100.00
2022-10-07T05:18:33.537Z,100.00
2022-10-07T05:21:09.052Z,100.00
2022-10-07T05:23:40.320Z,100.00
2022-10-07T05:26:09.700Z,100.00
2022-10-07T05:28:40.409Z,100.00
2022-10-07T05:31:15.664Z,100.00
2022-10-07T05:33:54.507Z,100.00
2022-10-07T05:36:21.507Z,100.00
2022-10-07T05:38:58.291Z,100.00
2022-10-07T05:41:28.249Z,100.00
2022-10-07T05:43:57.840Z,100.00
2022-10-07T05:46:25.665Z,100.00
2022-10-07T05:48:54.985Z,100.00
2022-10-07T05:51:26.014Z,100.00
2022-10-07T05:53:59.507Z,100.00
2022-10-07T05:56:26.839Z,100.00
2022-10-07T05:58:54.065Z,100.00
2022-10-07T06:01:24.818Z,100.00
2022-10-07T06:03:57.266Z,100.00
2022-10-07T06:06:26.674Z,100.00
2022-10-07T06:08:54.272Z,100.00
2022-10-07T06:11:41.823Z,100.00
2022-10-07T06:14:12.769Z,100.00
2022-10-07T06:16:39.961Z,100.00
2022-10-07T06:19:22.935Z,100.00
2022-10-07T06:21:50.973Z,100.00
2022-10-07T06:24:20.334Z,100.00
2022-10-07T06:26:49.043Z,100.00
2022-10-07T06:29:18.228Z,100.00
2022-10-07T06:31:46.217Z,100.00
2022-10-07T06:34:13.059Z,100.00
2022-10-07T06:36:39.772Z,100.00
2022-10-07T06:39:06.666Z,100.00
2022-10-07T06:41:33.433Z,100.00
2022-10-07T06:44:02.046Z,100.00
2022-10-07T06:46:28.885Z,100.00
2022-10-07T06:48:58.807Z,100.00
2022-10-07T06:51:25.798Z,100.00
2022-10-07T06:53:59.006Z,100.00
2022-10-07T06:56:25.880Z,100.00
2022-10-07T06:58:53.022Z,100.00
2022-10-07T07:01:20.245Z,100.00
2022-10-07T07:03:47.526Z,100.00
2022-10-07T07:06:23.754Z,100.00
2022-10-07T07:08:52.432Z,100.00
2022-10-07T07:11:37.960Z,100.00
2022-10-07T07:14:06.793Z,100.00
2022-10-07T07:16:35.625Z,100.00
2022-10-07T07:19:10.689Z,96.05
2022-10-07T07:21:38.290Z,97.53
2022-10-07T07:24:08.738Z,95.74
2022-10-07T07:26:37.769Z,96.99
2022-10-07T07:29:06.698Z,91.42
2022-10-07T07:31:37.417Z,93.52
2022-10-07T07:34:11.407Z,93.15
2022-10-07T07:36:53.553Z,91.65
2022-10-07T07:39:20.927Z,88.29
2022-10-07T07:41:48.524Z,88.15
2022-10-07T07:44:18.759Z,91.69
2022-10-07T07:46:51.425Z,88.77
2022-10-07T07:49:21.053Z,88.28
2022-10-07T07:51:48.435Z,91.06
2022-10-07T07:54:15.763Z,88.36
2022-10-07T07:56:43.250Z,88.69
2022-10-07T07:59:11.766Z,87.32
2022-10-07T08:01:45.797Z,85.34
2022-10-07T08:04:13.793Z,86.73
2022-10-07T08:06:41.443Z,85.69
2022-10-07T08:09:12.792Z,83.53
2022-10-07T08:11:45.450Z,84.82
2022-10-07T08:14:15.110Z,86.80
2022-10-07T08:16:47.468Z,84.27
2022-10-07T08:19:15.483Z,81.48
2022-10-07T08:21:42.956Z,84.42
2022-10-07T08:24:12.693Z,84.07
2022-10-07T08:26:39.784Z,81.71
2022-10-07T08:29:06.771Z,81.66
2022-10-07T08:31:34.204Z,83.67
2022-10-07T08:34:05.073Z,84.72
2022-10-07T08:36:34.399Z,84.51
2022-10-07T08:39:04.935Z,83.32
2022-10-07T08:41:34.338Z,82.34
2022-10-07T08:44:18.402Z,84.70
2022-10-07T08:47:44.817Z,83.66
2022-10-07T08:50:26.223Z,82.92
2022-10-07T08:53:16.244Z,81.91
2022-10-07T08:55:59.119Z,83.89
2022-10-07T08:59:30.139Z,84.66
2022-10-07T09:02:36.474Z,83.93
2022-10-07T09:05:32.699Z,84.27
2022-10-07T09:08:22.074Z,84.94
2022-10-07T09:10:53.503Z,85.79
2022-10-07T09:13:24.775Z,84.79
2022-10-07T09:16:30.377Z,86.77
2022-10-07T09:19:04.227Z,86.52
2022-10-07T09:21:51.716Z,85.66
2022-10-07T09:24:34.103Z,85.90
2022-10-07T09:27:14.592Z,85.58
2022-10-07T09:29:41.733Z,86.50
2022-10-07T09:32:21.422Z,87.10
2022-10-07T09:34:48.471Z,87.59
2022-10-07T09:37:27.813Z,87.45
2022-10-07T09:40:32.310Z,87.23
2022-10-07T09:43:00.456Z,88.04
2022-10-07T09:45:32.969Z,85.99
2022-10-07T09:48:16.973Z,86.64
2022-10-07T09:50:44.934Z,88.56
2022-10-07T09:53:29.010Z,89.16
2022-10-07T09:55:56.023Z,88.00
2022-10-07T09:58:32.855Z,86.88
2022-10-07T10:01:11.979Z,88.44
2022-10-07T10:03:38.899Z,88.77
2022-10-07T10:06:09.456Z,88.78
2022-10-07T10:08:43.753Z,86.35
2022-10-07T10:11:19.601Z,87.79
2022-10-07T10:13:51.195Z,86.92
2022-10-07T10:16:40.401Z,86.33
2022-10-07T10:19:28.305Z,85.31
2022-10-07T10:21:57.399Z,83.38
2022-10-07T10:24:54.041Z,86.18
2022-10-07T10:27:40.395Z,82.89
2022-10-07T10:30:21.683Z,83.47
2022-10-07T10:33:06.304Z,84.65
2022-10-07T10:35:46.700Z,86.26
2022-10-07T10:38:47.618Z,83.51
2022-10-07T10:41:30.742Z,82.62
2022-10-07T10:44:23.313Z,80.67
2022-10-07T10:47:56.427Z,79.90
2022-10-07T10:50:53.502Z,78.40
2022-10-07T10:54:05.010Z,80.16
2022-10-07T10:57:02.068Z,80.62
2022-10-07T11:00:16.098Z,81.79
2022-10-07T11:03:37.660Z,82.94
2022-10-07T11:06:13.187Z,79.97
2022-10-07T11:08:41.700Z,81.31
2022-10-07T11:11:18.910Z,80.27
2022-10-07T11:13:56.507Z,79.35
2022-10-07T11:16:47.135Z,80.19
2022-10-07T11:19:35.835Z,79.73
2022-10-07T11:22:04.199Z,81.76
2022-10-07T11:24:50.943Z,80.47
2022-10-07T11:27:28.599Z,81.35
2022-10-07T11:30:24.042Z,79.59
2022-10-07T11:33:15.403Z,84.71
2022-10-07T11:36:06.907Z,84.48
2022-10-07T11:38:39.829Z,84.99
2022-10-07T11:41:33.407Z,87.30
2022-10-07T11:44:21.453Z,87.61
2022-10-07T11:46:51.818Z,89.14
2022-10-07T11:49:55.844Z,90.79
2022-10-07T11:52:38.053Z,90.90
2022-10-07T11:55:19.374Z,89.24
2022-10-07T11:57:57.355Z,89.57
2022-10-07T12:00:42.614Z,89.88
2022-10-07T12:03:40.562Z,90.55
2022-10-07T12:06:13.508Z,90.88
2022-10-07T12:08:44.603Z,91.91
2022-10-07T12:11:11.448Z,92.88
2022-10-07T12:13:43.694Z,92.26
2022-10-07T12:16:30.166Z,91.77
2022-10-07T12:19:10.482Z,93.52
2022-10-07T12:22:05.574Z,92.04
2022-10-07T12:24:36.878Z,92.63
2022-10-07T12:27:21.709Z,92.38
2022-10-07T12:30:02.774Z,92.50
2022-10-07T12:32:51.839Z,94.90
2022-10-07T12:35:34.418Z,92.87
2022-10-07T12:38:17.876Z,92.18
2022-10-07T12:40:59.893Z,91.09
2022-10-07T12:44:21.215Z,92.53
2022-10-07T12:47:23.169Z,90.96
2022-10-07T12:49:58.760Z,91.82
2022-10-07T12:52:56.392Z,89.75
2022-10-07T12:55:39.541Z,88.71
2022-10-07T12:59:18.754Z,88.60
2022-10-07T13:02:37.158Z,87.41
2022-10-07T13:06:06.030Z,87.10
2022-10-07T13:09:24.684Z,87.76
2022-10-07T13:11:54.193Z,87.34
2022-10-07T13:14:59.248Z,86.34
2022-10-07T13:17:44.885Z,85.45
2022-10-07T13:20:45.808Z,83.02
2022-10-07T13:23:24.548Z,85.85
2022-10-07T13:25:59.033Z,87.64
2022-10-07T13:28:46.766Z,87.40
2022-10-07T13:31:22.410Z,88.55
2022-10-07T13:33:58.720Z,87.27
2022-10-07T13:36:43.681Z,88.76
2022-10-07T13:39:23.228Z,88.79
2022-10-07T13:42:02.109Z,87.63
2022-10-07T13:44:32.627Z,86.65
2022-10-07T13:47:06.366Z,87.83
2022-10-07T13:49:47.169Z,86.36
2022-10-07T13:52:39.614Z,87.13
2022-10-07T13:55:34.742Z,86.13
2022-10-07T13:58:12.649Z,86.57
2022-10-07T14:00:48.984Z,87.22
2022-10-07T14:03:18.726Z,86.43
2022-10-07T14:05:53.904Z,89.15
2022-10-07T14:08:28.233Z,89.32
2022-10-07T14:11:20.047Z,90.06
2022-10-07T14:13:46.871Z,90.20
2022-10-07T14:16:24.368Z,91.42
2022-10-07T14:18:57.024Z,91.83
2022-10-07T14:21:23.922Z,92.11
2022-10-07T14:23:50.657Z,91.34
2022-10-07T14:26:19.019Z,89.49
2022-10-07T14:28:48.709Z,89.75
2022-10-07T14:31:34.059Z,90.46
2022-10-07T14:34:38.505Z,89.28
2022-10-07T14:37:29.691Z,91.16
2022-10-07T14:39:58.501Z,92.57
2022-10-07T14:42:35.733Z,92.01
2022-10-07T14:45:09.572Z,92.78
2022-10-07T14:47:36.264Z,91.58
2022-10-07T14:50:03.058Z,91.64
2022-10-07T14:52:44.897Z,92.61
2022-10-07T14:55:28.637Z,93.09
2022-10-07T14:57:55.623Z,94.65
2022-10-07T15:00:34.880Z,95.40
2022-10-07T15:03:06.196Z,95.00
2022-10-07T15:05:33.736Z,95.66
2022-10-07T15:08:01.656Z,97.30
2022-10-07T15:10:28.784Z,96.62
2022-10-07T15:12:59.472Z,97.29
2022-10-07T15:15:26.647Z,96.72
2022-10-07T15:17:53.562Z,96.75
2022-10-07T15:20:23.384Z,96.81
2022-10-07T15:22:53.753Z,98.54
2022-10-07T15:25:21.675Z,99.20
2022-10-07T15:27:49.799Z,99.08
2022-10-07T15:30:17.199Z,98.88
2022-10-07T15:32:48.336Z,98.81
2022-10-07T15:35:18.848Z,99.37
2022-10-07T15:37:53.255Z,99.42
2022-10-07T15:40:21.118Z,99.79
2022-10-07T15:42:57.467Z,100.00
2022-10-07T15:45:26.983Z,100.00
2022-10-07T15:47:58.213Z,100.00
2022-10-07T15:50:27.698Z,100.00
2022-10-07T15:53:06.480Z,99.86
2022-10-07T15:55:36.587Z,99.18
2022-10-07T15:58:03.590Z,99.77
2022-10-07T16:00:30.729Z,100.00
2022-10-07T16:02:58.324Z,100.00
2022-10-07T16:05:25.397Z,100.00
2022-10-07T16:07:56.524Z,100.00
2022-10-07T16:10:26.643Z,100.00
2022-10-07T16:12:57.992Z,100.00
2022-10-07T16:15:25.566Z,100.00
2022-10-07T16:17:53.778Z,100.00
2022-10-07T16:20:21.713Z,100.00
2022-10-07T16:22:48.999Z,100.00
2022-10-07T16:25:17.308Z,100.00
2022-10-07T16:28:03.677Z,100.00
2022-10-07T16:30:42.862Z,100.00
2022-10-07T16:33:09.817Z,100.00
2022-10-07T16:35:36.853Z,100.00
2022-10-07T16:38:05.895Z,100.00
2022-10-07T16:40:34.083Z,100.00
2022-10-07T16:43:01.168Z,100.00
2022-10-07T16:45:28.572Z,100.00
2022-10-07T16:47:58.203Z,100.00
2022-10-07T16:50:25.264Z,100.00
2022-10-07T16:52:54.280Z,100.00
2022-10-07T16:55:21.218Z,100.00
2022-10-07T16:57:49.940Z,100.00
2022-10-07T17:00:18.863Z,100.00
2022-10-07T17:02:46.016Z,100.00
2022-10-07T17:05:13.112Z,100.00
2022-10-07T17:07:40.703Z,100.00
2022-10-07T17:10:09.359Z,100.00
2022-10-07T17:12:38.475Z,100.00
2022-10-07T17:15:05.769Z,100.00
2022-10-07T17:17:35.692Z,100.00
2022-10-07T17:20:03.610Z,100.00
2022-10-07T17:22:31.832Z,100.00
2022-10-07T17:25:00.674Z,100.00
2022-10-07T17:27:32.593Z,100.00
2022-10-07T17:29:59.812Z,100.00
2022-10-07T17:32:27.733Z,100.00
2022-10-07T17:34:54.964Z,100.00
2022-10-07T17:37:23.053Z,100.00
2022-10-07T17:39:50.158Z,100.00
2022-10-07T17:42:18.278Z,100.00
2022-10-07T17:44:46.266Z,100.00
2022-10-07T17:47:13.954Z,100.00
2022-10-07T17:49:41.440Z,100.00
2022-10-07T17:52:08.874Z,100.00
2022-10-07T17:54:39.513Z,100.00
2022-10-07T17:57:07.275Z,100.00
2022-10-07T17:59:35.381Z,100.00
2022-10-07T18:02:05.160Z,100.00
2022-10-07T18:04:32.654Z,100.00
2022-10-07T18:07:00.202Z,100.00
2022-10-07T18:09:27.639Z,100.00
2022-10-07T18:12:13.413Z,100.00
2022-10-07T18:15:01.369Z,100.00
2022-10-07T18:17:31.850Z,100.00
2022-10-07T18:20:00.622Z,100.00
2022-10-07T18:22:30.189Z,100.00
2022-10-07T18:25:02.451Z,100.00
2022-10-07T18:27:32.187Z,100.00
2022-10-07T18:29:59.457Z,100.00
2022-10-07T18:32:27.075Z,100.00
2022-10-07T18:34:54.223Z,100.00
2022-10-07T18:37:23.724Z,100.00
2022-10-07T18:40:01.142Z,100.00
2022-10-07T18:42:28.084Z,100.00
2022-10-07T18:44:55.585Z,100.00
2022-10-07T18:47:27.647Z,100.00
2022-10-07T18:49:58.724Z,100.00
2022-10-07T18:52:25.588Z,100.00
2022-10-07T18:54:52.858Z,100.00
2022-10-07T18:57:21.132Z,100.00
2022-10-07T18:59:52.078Z,100.00
2022-10-07T19:02:20.749Z,100.00
2022-10-07T19:04:48.343Z,100.00
2022-10-07T19:07:18.341Z,100.00
2022-10-07T19:09:49.794Z,100.00
2022-10-07T19:12:35.496Z,100.00
2022-10-07T19:15:03.695Z,100.00
2022-10-07T19:17:30.746Z,100.00
2022-10-07T19:20:01.387Z,100.00
2022-10-07T19:22:28.789Z,100.00
2022-10-07T19:25:14.067Z,100.00
2022-10-07T19:27:49.293Z,100.00
2022-10-07T19:30:16.631Z,100.00
2022-10-07T19:32:45.054Z,100.00
2022-10-07T19:35:12.074Z,100.00
2022-10-07T19:37:39.191Z,100.00
2022-10-07T19:40:07.252Z,100.00
2022-10-07T19:42:39.968Z,100.00
2022-10-07T19:45:09.427Z,100.00
2022-10-07T19:47:39.607Z,100.00
2022-10-07T19:50:07.601Z,100.00
2022-10-07T19:52:35.472Z,100.00
2022-10-07T19:55:02.674Z,100.00
2022-10-07T19:57:29.875Z,100.00
2022-10-07T19:59:57.585Z,100.00
2022-10-07T20:02:24.764Z,100.00
2022-10-07T20:04:54.295Z,100.00
2022-10-07T20:07:21.777Z,100.00
2022-10-07T20:09:49.387Z,100.00
2022-10-07T20:12:16.971Z,100.00
2022-10-07T20:15:00.137Z,100.00
2022-10-07T20:17:27.478Z,100.00
2022-10-07T20:19:56.915Z,100.00
2022-10-07T20:22:25.388Z,100.00
2022-10-07T20:24:52.392Z,100.00
2022-10-07T20:27:20.856Z,100.00
2022-10-07T20:30:17.606Z,100.00
2022-10-07T20:32:45.627Z,100.00
2022-10-07T20:35:12.890Z,100.00
2022-10-07T20:37:39.957Z,100.00
2022-10-07T20:40:26.452Z,100.00
2022-10-07T20:42:56.170Z,100.00
2022-10-07T20:45:30.597Z,100.00
2022-10-07T20:48:00.310Z,100.00
2022-10-07T20:50:29.404Z,100.00
2022-10-07T20:52:56.757Z,100.00
2022-10-07T20:55:26.984Z,100.00
2022-10-07T20:57:55.330Z,100.00
2022-10-07T21:00:22.344Z,100.00
2022-10-07T21:02:49.875Z,100.00
2022-10-07T21:05:17.341Z,100.00
2022-10-07T21:07:45.580Z,100.00
2022-10-07T21:10:16.509Z,100.00
2022-10-07T21:12:44.504Z,100.00
2022-10-07T21:15:14.494Z,100.00
2022-10-07T21:17:44.638Z,100.00
2022-10-07T21:20:12.407Z,100.00
2022-10-07T21:22:48.530Z,100.00
2022-10-07T21:25:16.287Z,100.00
2022-10-07T21:27:46.561Z,100.00
2022-10-07T21:30:13.986Z,100.00
2022-10-07T21:32:41.758Z,100.00
2022-10-07T21:35:09.673Z,100.00
2022-10-07T21:37:43.219Z,100.00
2022-10-07T21:40:13.306Z,100.00
2022-10-07T21:42:41.699Z,100.00
2022-10-07T21:45:09.618Z,100.00
2022-10-07T21:47:38.311Z,100.00
2022-10-07T21:50:06.089Z,100.00
2022-10-07T21:52:32.959Z,100.00
2022-10-07T21:54:59.953Z,100.00
2022-10-07T21:57:26.567Z,100.00
2022-10-07T21:59:53.726Z,100.00
2022-10-07T22:02:26.387Z,100.00
2022-10-07T22:04:53.108Z,100.00
2022-10-07T22:07:38.136Z,100.00
2022-10-07T22:10:05.744Z,100.00
2022-10-07T22:12:32.571Z,100.00
2022-10-07T22:14:59.395Z,100.00
2022-10-07T22:17:26.680Z,100.00
2022-10-07T22:19:53.490Z,100.00
2022-10-07T22:22:20.536Z,100.00
2022-10-07T22:24:47.210Z,100.00
2022-10-07T22:27:16.435Z,100.00
2022-10-07T22:29:43.350Z,100.00
2022-10-07T22:32:10.337Z,100.00
2022-10-07T22:34:55.417Z,100.00
2022-10-07T22:37:22.213Z,100.00
2022-10-07T22:39:49.055Z,100.00
2022-10-07T22:42:15.805Z,100.00
2022-10-07T22:44:42.572Z,100.00
2022-10-07T22:47:09.440Z,100.00
2022-10-07T22:49:36.149Z,100.00
2022-10-07T22:52:02.878Z,100.00
2022-10-07T22:54:30.030Z,100.00
2022-10-07T22:56:56.896Z,100.00
2022-10-07T22:59:23.544Z,100.00
2022-10-07T23:01:50.437Z,100.00
2022-10-07T23:04:20.343Z,100.00
2022-10-07T23:06:47.327Z,100.00
2022-10-07T23:09:14.027Z,100.00
2022-10-07T23:11:41.099Z,100.00
2022-10-07T23:14:08.123Z,100.00
2022-10-07T23:16:36.054Z,100.00
2022-10-07T23:19:02.929Z,100.00
2022-10-07T23:21:34.724Z,100.00
2022-10-07T23:24:07.745Z,100.00
2022-10-07T23:26:36.988Z,100.00
2022-10-07T23:29:05.685Z,100.00
2022-10-07T23:31:33.505Z,100.00
2022-10-07T23:34:02.962Z,100.00
2022-10-07T23:36:31.064Z,100.00
2022-10-07T23:39:00.751Z,100.00
2022-10-07T23:41:32.116Z,100.00
2022-10-07T23:44:04.185Z,100.00
2022-10-07T23:46:35.115Z,100.00
2022-10-07T23:49:03.798Z,100.00
2022-10-07T23:51:34.601Z,100.00
2022-10-07T23:54:04.228Z,100.00
2022-10-07T23:56:32.370Z,100.00
2022-10-07T23:59:00.565Z,100.00
